CheckWX is a tool to help pilots better visualize weather data.  It is not intended as a substitute for an official pre-flight weather briefing.

05:34:07 UTC

4A9 METAR
Isbell Field Airport
Fort Payne, Alabama, USA
Current

19 mins ago

K4A9 260515Z AUTO 11007KT 050V160 5SM BR BKN022 BKN037 OVC065 21/20 A3002 RMK AO2 T02140199
Observed
Aug-26 @ 05:15 UTC
Wind
  • 110° at 7 KTS
Visibility
5 SM
Flight Rules
MVFR
Conditions
Mist
Cloud Levels
  • Broken at 2,200' AGL
  • Broken at 3,700' AGL
  • Overcast at 6,500' AGL
Temperature
21°C / 70°F
Dewpoint
20°C / 68°F
Humidity
94%
Altimeter
30.02" Hg
Pressure
1016.62 hPa
Previous

39 mins ago

K4A9 260455Z AUTO 00000KT 10SM BKN024 BKN032 OVC039 22/20 A3004 RMK AO2 P0014 T02160199
Observed
Aug-26 @ 04:55 UTC
Visibility
10 SM
Flight Rules
MVFR
Cloud Levels
  • Broken at 2,400' AGL
  • Broken at 3,200' AGL
  • Overcast at 3,900' AGL
Temperature
22°C / 72°F
Dewpoint
20°C / 68°F
Humidity
88%
Altimeter
30.04" Hg
Pressure
1017.32 hPa
Current Rain
0.14"
Previous

59 mins ago

K4A9 260435Z AUTO 11004KT 10SM SCT024 BKN034 OVC043 21/20 A3004 RMK AO2 P0014 T02140200
Observed
Aug-26 @ 04:35 UTC
Wind
  • 110° at 4 KTS
Visibility
10 SM
Flight Rules
VFR
Cloud Levels
  • Scattered at 2,400' AGL
  • Broken at 3,400' AGL
  • Overcast at 4,300' AGL
Temperature
21°C / 70°F
Dewpoint
20°C / 68°F
Humidity
94%
Altimeter
30.04" Hg
Pressure
1017.32 hPa
Current Rain
0.14"